createdAt,value
2019-03-09T00:00:42.896Z,84.3
2019-03-09T00:01:42.841Z,84.5
2019-03-09T00:02:43.346Z,85.5
2019-03-09T00:03:43.790Z,84.7
2019-03-09T00:04:43.718Z,84.3
2019-03-09T00:05:43.634Z,84.6
2019-03-09T00:06:43.570Z,84.6
2019-03-09T00:07:43.514Z,84.7
2019-03-09T00:08:43.884Z,84.8
2019-03-09T00:09:43.828Z,85
2019-03-09T00:10:43.762Z,85.1
2019-03-09T00:11:43.693Z,85.2
2019-03-09T00:12:43.733Z,85.4
2019-03-09T00:13:43.651Z,85.4
2019-03-09T00:14:43.596Z,86.3
2019-03-09T00:15:43.549Z,85.6
2019-03-09T00:16:43.479Z,85.5
2019-03-09T00:17:43.384Z,85.6
2019-03-09T00:18:44.058Z,85.5
2019-03-09T00:19:44.718Z,85.7
2019-03-09T00:20:45.313Z,84.8
2019-03-09T00:28:44.080Z,82.4
2019-03-09T00:29:44.016Z,83
2019-03-09T00:30:46.778Z,83.3
2019-03-09T00:31:46.678Z,83.5
2019-03-09T00:32:46.594Z,83.7
2019-03-09T00:33:46.547Z,84
2019-03-09T00:34:46.484Z,83.8
2019-03-09T00:35:46.404Z,83.8
2019-03-09T00:36:46.872Z,83.9
2019-03-09T00:37:46.774Z,84
2019-03-09T00:38:50.319Z,84
2019-03-09T00:39:50.255Z,83.8
2019-03-09T00:40:50.186Z,84
2019-03-09T00:41:50.137Z,84.1
2019-03-09T00:42:50.069Z,84.1
2019-03-09T00:43:50.007Z,84.4
2019-03-09T00:44:49.965Z,84.3
2019-03-09T00:45:50.411Z,84.5
2019-03-09T00:46:50.677Z,84.8
2019-03-09T00:47:50.638Z,85
2019-03-09T00:48:51.067Z,84.9
2019-03-09T00:49:51.031Z,85
2019-03-09T00:50:51.223Z,85
2019-03-09T00:51:54.289Z,85
2019-03-09T00:52:54.198Z,85.4
2019-03-09T00:53:54.129Z,85.6
2019-03-09T00:54:54.743Z,85.6
2019-03-09T00:55:57.884Z,86.7
2019-03-09T00:56:57.787Z,86
2019-03-09T00:57:57.743Z,85.8
2019-03-09T00:58:58.062Z,86
2019-03-09T00:59:57.987Z,86
2019-03-09T01:00:57.893Z,86.2
2019-03-09T01:01:57.811Z,86.2
2019-03-09T01:02:57.703Z,86.3
2019-03-09T01:03:57.599Z,86.2
2019-03-09T01:04:57.722Z,86.3
2019-03-09T01:05:57.652Z,86.5
2019-03-09T01:06:57.549Z,86.5
2019-03-09T01:07:57.451Z,86.5
2019-03-09T01:08:57.767Z,87.4
2019-03-09T01:09:57.673Z,86.8
2019-03-09T01:10:57.575Z,86.6
2019-03-09T01:12:00.401Z,86.7
2019-03-09T01:13:00.289Z,86.8
2019-03-09T01:14:00.177Z,86.7
2019-03-09T01:15:00.116Z,86.7
2019-03-09T01:16:00.153Z,86.8
2019-03-09T01:17:00.055Z,86.7
2019-03-09T01:18:00.229Z,86.7
2019-03-09T01:19:00.841Z,86.7
2019-03-09T01:20:00.961Z,86.7
2019-03-09T01:21:00.838Z,86.6
2019-03-09T01:22:00.747Z,86.7
2019-03-09T01:23:00.661Z,86.8
2019-03-09T01:24:00.559Z,86.8
2019-03-09T01:25:00.483Z,86.8
2019-03-09T01:26:00.367Z,86.9
2019-03-09T01:27:03.048Z,86.8
2019-03-09T01:28:02.947Z,86.5
2019-03-09T01:29:03.303Z,86.3
2019-03-09T01:30:03.224Z,86.6
2019-03-09T01:39:01.736Z,83
2019-03-09T01:40:01.649Z,83.6
2019-03-09T01:41:01.538Z,83.8
2019-03-09T01:42:01.423Z,84
2019-03-09T01:43:01.591Z,84.2
2019-03-09T01:44:01.493Z,84
2019-03-09T01:45:01.408Z,84
2019-03-09T01:46:01.332Z,84.1
2019-03-09T01:47:01.235Z,84.3
2019-03-09T01:48:01.134Z,84.5
2019-03-09T01:49:01.440Z,84.6
2019-03-09T01:50:01.345Z,84.5
2019-03-09T01:58:59.857Z,81.4
2019-03-09T01:59:59.741Z,82.1
2019-03-09T02:00:59.877Z,82.5
2019-03-09T02:01:59.787Z,82.7
2019-03-09T02:02:59.685Z,82.7
2019-03-09T02:03:59.599Z,83
2019-03-09T02:04:59.559Z,83
2019-03-09T02:05:59.437Z,83.2
2019-03-09T02:06:59.324Z,83.4
2019-03-09T02:07:59.203Z,83.6
2019-03-09T02:08:59.589Z,83.7
2019-03-09T02:09:59.505Z,83.8
2019-03-09T02:10:59.381Z,83.9
2019-03-09T02:11:59.278Z,84.1
2019-03-09T02:12:59.155Z,84.5
2019-03-09T02:13:59.074Z,84.3
2019-03-09T02:14:58.965Z,84.5
2019-03-09T02:15:58.860Z,85.3
2019-03-09T02:16:58.755Z,84.6
2019-03-09T02:17:58.661Z,84.9
2019-03-09T02:18:59.023Z,84.9
2019-03-09T02:19:58.962Z,85.2
2019-03-09T02:20:58.854Z,84.9
2019-03-09T02:21:58.751Z,84.8
2019-03-09T02:22:58.864Z,84.8
2019-03-09T02:23:58.747Z,85
2019-03-09T02:24:58.641Z,85.2
2019-03-09T02:25:58.522Z,85.7
2019-03-09T02:26:58.398Z,85.7
2019-03-09T02:27:58.315Z,85.7
2019-03-09T02:28:58.654Z,85.7
2019-03-09T02:30:01.490Z,86.1
2019-03-09T02:31:01.458Z,86.2
2019-03-09T02:32:01.389Z,86.2
2019-03-09T02:33:01.300Z,86
2019-03-09T02:34:01.212Z,86.5
2019-03-09T02:35:01.300Z,86.2
2019-03-09T02:36:01.318Z,86.2
2019-03-09T02:37:01.253Z,86.3
2019-03-09T02:38:01.188Z,86.3
2019-03-09T02:39:01.539Z,86.4
2019-03-09T02:40:01.484Z,86.1
2019-03-09T02:41:01.402Z,86.3
2019-03-09T02:42:01.347Z,86.2
2019-03-09T02:43:01.517Z,85.8
2019-03-09T02:44:01.455Z,86.1
2019-03-09T02:45:01.381Z,85.7
2019-03-09T02:46:01.372Z,86.1
2019-03-09T02:47:01.369Z,85.9
2019-03-09T02:48:01.288Z,85.8
2019-03-09T02:49:01.670Z,85.6
2019-03-09T02:50:01.607Z,85.5
2019-03-09T02:51:01.567Z,85.6
2019-03-09T02:52:01.498Z,85.4
2019-03-09T02:53:01.405Z,85.2
2019-03-09T02:54:01.377Z,85.4
2019-03-09T02:55:01.311Z,85.4
2019-03-09T02:56:01.277Z,85.5
2019-03-09T02:57:01.192Z,85.6
2019-03-09T02:58:01.106Z,85.8
2019-03-09T02:59:01.418Z,86.1
2019-03-09T03:00:02.610Z,85.8
2019-03-09T03:01:02.544Z,85.8
2019-03-09T03:02:02.467Z,86
2019-03-09T03:03:02.435Z,86
2019-03-09T03:04:02.448Z,86.1
2019-03-09T03:05:02.354Z,86
2019-03-09T03:06:02.273Z,86.1
2019-03-09T03:07:02.189Z,85.7
2019-03-09T03:08:02.119Z,85.9
2019-03-09T03:09:02.527Z,85.7
2019-03-09T03:10:02.433Z,85
2019-03-09T03:19:02.282Z,81.7
2019-03-09T03:20:02.237Z,82.4
2019-03-09T03:21:02.154Z,82.7
2019-03-09T03:22:02.181Z,82.9
2019-03-09T03:23:02.149Z,82.8
2019-03-09T03:24:02.179Z,83
2019-03-09T03:25:02.358Z,83.3
2019-03-09T03:26:02.281Z,83.3
2019-03-09T03:27:02.239Z,83.7
2019-03-09T03:28:02.531Z,83.4
2019-03-09T03:29:02.966Z,83.7
2019-03-09T03:30:02.950Z,83.8
2019-03-09T03:31:03.225Z,83.9
2019-03-09T03:32:03.199Z,84
2019-03-09T03:33:03.244Z,84.6
2019-03-09T03:34:03.318Z,84.1
2019-03-09T03:35:03.294Z,84.2
2019-03-09T03:36:03.260Z,84.3
2019-03-09T03:37:03.281Z,84.4
2019-03-09T03:38:03.188Z,84.2
2019-03-09T03:39:03.600Z,84.3
2019-03-09T03:40:04.541Z,84.2
2019-03-09T03:41:04.575Z,84.2
2019-03-09T03:42:04.510Z,84.1
2019-03-09T03:43:04.661Z,84
2019-03-09T03:44:05.618Z,84.1
2019-03-09T03:45:05.566Z,84.1
2019-03-09T03:46:05.493Z,84.2
2019-03-09T03:47:05.396Z,84.2
2019-03-09T03:48:05.314Z,84.3
2019-03-09T03:49:05.766Z,84.2
2019-03-09T03:50:05.767Z,84.3
2019-03-09T03:51:05.813Z,84.5
2019-03-09T03:52:05.726Z,84.4
2019-03-09T03:53:08.864Z,84.5
2019-03-09T03:54:08.807Z,84.7
2019-03-09T03:55:08.738Z,84.7
2019-03-09T03:56:08.701Z,84.7
2019-03-09T03:57:08.614Z,84.5
2019-03-09T03:58:08.534Z,84.5
2019-03-09T03:59:09.008Z,84.6
2019-03-09T04:00:08.914Z,84.7
2019-03-09T04:09:07.838Z,81.5
2019-03-09T04:10:07.797Z,82.3
2019-03-09T04:11:07.711Z,82.7
2019-03-09T04:12:07.648Z,82.8
2019-03-09T04:13:07.545Z,82.9
2019-03-09T04:14:07.474Z,83
2019-03-09T04:15:07.394Z,83.3
2019-03-09T04:16:07.595Z,83.2
2019-03-09T04:17:07.503Z,83.3
2019-03-09T04:18:07.445Z,83.3
2019-03-09T04:19:07.805Z,83.4
2019-03-09T04:20:08.021Z,83.7
2019-03-09T04:21:07.954Z,83.6
2019-03-09T04:22:07.846Z,83.6
2019-03-09T04:23:07.804Z,83.6
2019-03-09T04:24:07.722Z,83.7
2019-03-09T04:25:07.686Z,83.6
2019-03-09T04:26:07.615Z,84
2019-03-09T04:27:07.541Z,84.1
2019-03-09T04:28:07.452Z,84.2
2019-03-09T04:29:07.995Z,84.1
2019-03-09T04:30:07.901Z,84.2
2019-03-09T04:31:07.855Z,83.8
2019-03-09T04:49:05.349Z,79.1
2019-03-09T04:50:05.290Z,79.8
2019-03-09T04:51:05.179Z,80.2
2019-03-09T04:52:05.093Z,80.3
2019-03-09T04:53:04.977Z,80.2
2019-03-09T04:54:04.869Z,81.2
2019-03-09T04:55:04.771Z,80.6
2019-03-09T04:56:04.903Z,80.8
2019-03-09T04:57:04.833Z,81
2019-03-09T04:58:04.752Z,81
2019-03-09T04:59:05.101Z,81.2
2019-03-09T05:00:04.981Z,81.5
2019-03-09T05:01:04.875Z,81.5
2019-03-09T05:02:04.771Z,81.6
2019-03-09T05:03:04.691Z,82
2019-03-09T05:04:04.606Z,82.1
2019-03-09T05:05:05.492Z,82.3
2019-03-09T05:06:05.363Z,82.3
2019-03-09T05:07:05.253Z,82.5
2019-03-09T05:08:05.174Z,82.5
2019-03-09T05:09:05.941Z,82.6
2019-03-09T05:10:05.833Z,82.8
2019-03-09T05:11:05.741Z,82.7
2019-03-09T05:12:05.661Z,82.8
2019-03-09T05:13:05.679Z,82.9
2019-03-09T05:14:05.563Z,83
2019-03-09T05:15:05.468Z,83.3
2019-03-09T05:16:05.382Z,83.2
2019-03-09T05:17:05.258Z,83.4
2019-03-09T05:18:05.369Z,83.4
2019-03-09T05:19:05.695Z,83.4
2019-03-09T05:20:05.617Z,83.6
2019-03-09T05:21:05.527Z,83.7
2019-03-09T05:22:05.458Z,83.6
2019-03-09T05:23:05.364Z,83.8
2019-03-09T05:24:05.273Z,84
2019-03-09T05:25:05.388Z,84.8
2019-03-09T05:26:05.341Z,84
2019-03-09T05:27:05.238Z,84.1
2019-03-09T05:28:05.124Z,84.3
2019-03-09T05:29:05.493Z,84.2
2019-03-09T05:30:05.390Z,84.3
2019-03-09T05:31:05.275Z,84
2019-03-09T05:32:05.391Z,84.1
2019-03-09T05:33:05.267Z,84.2
2019-03-09T05:34:05.178Z,84
2019-03-09T05:35:05.099Z,83.9
2019-03-09T05:36:05.003Z,83.9
2019-03-09T05:37:05.575Z,84
2019-03-09T05:38:05.714Z,84
2019-03-09T05:39:06.063Z,84.2
2019-03-09T05:40:05.963Z,84.1
2019-03-09T05:41:05.872Z,84
2019-03-09T05:42:05.796Z,84
2019-03-09T05:43:05.685Z,83.9
2019-03-09T05:44:05.593Z,84.1
2019-03-09T05:45:06.494Z,84.2
2019-03-09T05:46:06.377Z,84.1
2019-03-09T05:47:06.323Z,84.1
2019-03-09T05:48:06.214Z,84.1
2019-03-09T05:49:06.761Z,84.3
2019-03-09T05:50:06.713Z,84.2
2019-03-09T05:51:06.613Z,84
2019-03-09T05:52:06.497Z,83.9
2019-03-09T05:53:06.395Z,83.8
2019-03-09T05:54:06.288Z,83.8
2019-03-09T05:55:06.160Z,83.8
2019-03-09T05:56:08.306Z,83.6
2019-03-09T05:57:08.184Z,83.7
2019-03-09T05:58:08.116Z,83.8
2019-03-09T05:59:08.425Z,83.9
2019-03-09T06:00:08.304Z,84.3
2019-03-09T06:01:08.220Z,84.1
2019-03-09T06:02:08.109Z,84.2
2019-03-09T06:03:07.991Z,84.3
2019-03-09T06:04:07.870Z,84.4
2019-03-09T06:05:07.742Z,84.4
2019-03-09T06:06:07.627Z,84.3
2019-03-09T06:07:07.548Z,84.4
2019-03-09T06:08:07.427Z,84.4
2019-03-09T06:09:07.742Z,84.3
2019-03-09T06:10:07.622Z,84.4
2019-03-09T06:11:07.544Z,84.4
2019-03-09T06:12:07.482Z,84.4
2019-03-09T06:13:07.368Z,84.4
2019-03-09T06:14:07.268Z,84.4
2019-03-09T06:15:07.150Z,84.2
2019-03-09T06:16:07.036Z,84.4
2019-03-09T06:17:06.950Z,84.3
2019-03-09T06:18:07.210Z,84.6
2019-03-09T06:19:07.532Z,84.7
2019-03-09T06:20:07.406Z,84.5
2019-03-09T06:21:07.294Z,83.7
2019-03-09T06:29:05.852Z,80.9
2019-03-09T06:30:05.749Z,81.6
2019-03-09T06:31:05.644Z,81.3
2019-03-09T06:32:05.526Z,81.2
2019-03-09T06:33:05.436Z,81.3
2019-03-09T06:34:06.349Z,81.2
2019-03-09T06:35:06.250Z,81.2
2019-03-09T06:36:06.164Z,81.2
2019-03-09T06:37:06.049Z,81.3
2019-03-09T06:38:05.962Z,81.3
2019-03-09T06:39:06.338Z,81.5
2019-03-09T06:40:06.237Z,81.7
2019-03-09T06:41:06.151Z,81.7
2019-03-09T06:42:06.040Z,82
2019-03-09T06:43:05.971Z,82.1
2019-03-09T06:44:05.888Z,82.2
2019-03-09T06:45:05.804Z,82.3
2019-03-09T06:46:05.696Z,82.2
2019-03-09T06:47:05.612Z,82.3
2019-03-09T06:48:05.740Z,82.2
2019-03-09T06:49:06.122Z,82.2
2019-03-09T06:50:06.021Z,82.3
2019-03-09T06:51:05.928Z,81.4
2019-03-09T06:58:14.422Z,78.8
2019-03-09T07:08:12.491Z,77
2019-03-09T07:13:11.783Z,76.8
2019-03-09T07:14:11.702Z,76.7
2019-03-09T07:15:11.608Z,76.7
2019-03-09T07:19:11.132Z,76.3
2019-03-09T07:20:13.719Z,77.1
2019-03-09T07:21:13.622Z,78
2019-03-09T07:22:13.528Z,77.6
2019-03-09T07:23:13.432Z,77.8
2019-03-09T07:24:13.309Z,78
2019-03-09T07:25:13.220Z,78
2019-03-09T07:26:13.128Z,78
2019-03-09T07:27:13.025Z,78.1
2019-03-09T07:28:12.925Z,78.5
2019-03-09T07:29:13.261Z,78.8
2019-03-09T07:30:13.164Z,78.9
2019-03-09T07:31:13.075Z,79.1
2019-03-09T07:32:12.967Z,78.9
2019-03-09T07:33:12.871Z,78.2
2019-03-09T07:39:11.861Z,76.2
2019-03-09T07:40:11.773Z,77
2019-03-09T07:41:11.685Z,77.1
2019-03-09T07:42:11.582Z,77.2
2019-03-09T07:43:11.720Z,77.1
2019-03-09T07:44:11.603Z,77.1
2019-03-09T07:45:11.489Z,77.3
2019-03-09T07:46:11.373Z,77.7
2019-03-09T07:47:11.331Z,77.9
2019-03-09T07:48:11.235Z,77.9
2019-03-09T07:49:11.587Z,78.5
2019-03-09T07:50:11.525Z,77.6
2019-03-09T07:51:11.423Z,77.6
2019-03-09T07:52:11.333Z,77.8
2019-03-09T07:53:11.217Z,77.9
2019-03-09T07:54:11.123Z,77.5
2019-03-09T07:55:11.087Z,77.8
2019-03-09T07:56:10.967Z,77.5
2019-03-09T07:57:10.879Z,76.9
2019-03-09T07:58:10.784Z,77.1
2019-03-09T07:59:11.105Z,77.2
2019-03-09T08:00:11.000Z,77.5
2019-03-09T08:01:10.907Z,77.6
2019-03-09T08:02:10.863Z,78.4
2019-03-09T08:03:10.989Z,78.4
2019-03-09T08:04:10.915Z,78.3
2019-03-09T08:05:10.827Z,78.3
2019-03-09T08:06:10.776Z,77.9
2019-03-09T08:07:10.648Z,77
2019-03-09T08:08:10.541Z,77
2019-03-09T08:09:10.882Z,77
2019-03-09T08:10:10.775Z,75.3
2019-03-09T08:11:10.674Z,75.4
2019-03-09T08:12:11.568Z,75.6
2019-03-09T08:13:11.505Z,75.6
2019-03-09T08:14:11.434Z,75.5
2019-03-09T08:15:11.379Z,74.6
2019-03-09T08:16:11.267Z,74.2
2019-03-09T08:17:11.163Z,74.4
2019-03-09T08:18:11.085Z,74.5
2019-03-09T08:19:11.461Z,74.5
2019-03-09T08:20:11.365Z,74.8
2019-03-09T08:21:11.352Z,74.3
2019-03-09T08:22:11.293Z,73.6
2019-03-09T08:23:11.205Z,72.9
2019-03-09T08:25:10.888Z,71.7
2019-03-09T08:27:10.549Z,70.9
2019-03-09T08:29:10.661Z,70.4
2019-03-09T08:30:10.591Z,71.3
2019-03-09T08:31:10.505Z,71.4
2019-03-09T08:32:10.455Z,71.5
2019-03-09T08:33:10.410Z,71.7
2019-03-09T08:34:10.336Z,70.7
2019-03-09T08:35:10.345Z,71.2
2019-03-09T08:36:10.341Z,71.3
2019-03-09T08:37:10.234Z,71.5
2019-03-09T08:38:10.166Z,71.9
2019-03-09T08:39:10.577Z,71.9
2019-03-09T08:40:10.508Z,71.8
2019-03-09T08:41:10.776Z,72.1
2019-03-09T08:42:10.746Z,71
2019-03-09T08:43:10.701Z,70.9
2019-03-09T08:45:10.468Z,70.8
2019-03-09T08:47:10.400Z,70.3
2019-03-09T08:48:10.349Z,70.1
2019-03-09T08:49:10.724Z,69.9
2019-03-09T08:50:10.695Z,70.6
2019-03-09T08:51:10.679Z,70.1
2019-03-09T08:52:10.711Z,69.8
2019-03-09T08:53:10.671Z,69.6
2019-03-09T08:54:10.620Z,69.4
2019-03-09T08:55:10.618Z,69
2019-03-09T08:56:10.633Z,69.8
2019-03-09T08:57:10.671Z,70
2019-03-09T08:58:10.596Z,70.7
2019-03-09T08:59:11.416Z,71
2019-03-09T09:00:11.418Z,71.2
2019-03-09T09:01:11.457Z,71.7
2019-03-09T09:02:11.564Z,72.2
2019-03-09T09:03:11.511Z,72
2019-03-09T09:04:11.468Z,72.4
2019-03-09T09:05:11.392Z,72.4
2019-03-09T09:06:11.291Z,72.3
2019-03-09T09:07:11.227Z,71.6
2019-03-09T09:08:11.168Z,70.5
2019-03-09T09:09:11.555Z,70.7
2019-03-09T09:10:11.479Z,70.2
2019-03-09T09:11:11.384Z,70.2
2019-03-09T09:12:11.340Z,70
2019-03-09T09:13:11.298Z,69.5
2019-03-09T09:14:11.326Z,69.2
2019-03-09T09:15:11.278Z,68.7
2019-03-09T09:16:11.180Z,69.2
2019-03-09T09:17:11.090Z,69.2
2019-03-09T09:18:11.012Z,69.2
2019-03-09T09:19:11.416Z,69
2019-03-09T09:20:11.313Z,69.3
2019-03-09T09:21:11.214Z,69.1
2019-03-09T09:22:11.180Z,68.3
2019-03-09T09:23:11.110Z,68.3
2019-03-09T09:24:11.017Z,68.7
2019-03-09T09:25:10.928Z,69.5
2019-03-09T09:26:10.814Z,68.4
2019-03-09T09:27:10.730Z,67.7
2019-03-09T09:28:10.646Z,68
2019-03-09T09:29:10.964Z,67.9
2019-03-09T09:30:10.864Z,67.7
2019-03-09T09:31:10.776Z,67.8
2019-03-09T09:32:10.669Z,68
2019-03-09T09:33:10.560Z,67.9
2019-03-09T09:34:10.478Z,66.7
2019-03-09T09:35:10.373Z,67.3
2019-03-09T09:36:10.277Z,64.7
2019-03-09T09:37:10.182Z,65.3
2019-03-09T09:38:10.097Z,64.8
2019-03-09T09:39:10.464Z,64.1
2019-03-09T09:40:10.372Z,64.9
2019-03-09T09:41:13.224Z,64.5
2019-03-09T09:42:13.109Z,64.5
2019-03-09T09:43:12.991Z,64.4
2019-03-09T09:44:12.907Z,63.5
2019-03-09T09:45:12.815Z,63.6
2019-03-09T09:46:15.621Z,64
2019-03-09T09:47:18.375Z,64.1
2019-03-09T09:48:18.381Z,64.1
2019-03-09T09:49:18.791Z,63.5
2019-03-09T09:50:20.282Z,63.4
2019-03-09T09:51:20.192Z,62.5
2019-03-09T09:52:20.069Z,63.1
2019-03-09T09:53:19.972Z,63.4
2019-03-09T09:54:19.904Z,63.1
2019-03-09T09:55:19.813Z,63.2
2019-03-09T09:56:19.754Z,63.8
2019-03-09T09:57:19.670Z,63.7
2019-03-09T09:58:19.568Z,63.6
2019-03-09T09:59:19.900Z,64.1
2019-03-09T10:00:19.842Z,62.9
2019-03-09T10:01:19.752Z,63.2
2019-03-09T10:02:19.644Z,62.5
2019-03-09T10:03:19.573Z,62.7
2019-03-09T10:04:19.504Z,62.1
2019-03-09T10:05:19.437Z,61.4
2019-03-09T10:06:20.351Z,60.7
2019-03-09T10:07:20.274Z,61
2019-03-09T10:08:21.222Z,61.6
2019-03-09T10:09:21.574Z,60.9
2019-03-09T10:10:21.514Z,60.3
2019-03-09T10:11:21.410Z,60.1
2019-03-09T10:12:21.336Z,59.8
2019-03-09T10:13:21.212Z,60
2019-03-09T10:14:26.124Z,60.4
2019-03-09T10:15:26.026Z,61.6
2019-03-09T10:16:25.927Z,60.7
2019-03-09T10:17:26.026Z,60.7
2019-03-09T10:18:25.957Z,60.8
2019-03-09T10:19:26.521Z,60.8
2019-03-09T10:20:26.414Z,61.2
2019-03-09T10:21:26.342Z,61.4
2019-03-09T10:22:26.248Z,61.4
2019-03-09T10:23:26.137Z,61.2
2019-03-09T10:24:28.569Z,60
2019-03-09T10:25:28.465Z,60.3
2019-03-09T10:26:28.402Z,60.8
2019-03-09T10:27:28.310Z,60.7
2019-03-09T10:28:28.202Z,60.1
2019-03-09T10:29:28.554Z,59.7
2019-03-09T10:30:28.474Z,59.6
2019-03-09T10:31:28.410Z,59
2019-03-09T10:32:28.278Z,60
2019-03-09T10:33:28.167Z,60.2
2019-03-09T10:34:28.068Z,60
2019-03-09T10:35:31.970Z,59.4
2019-03-09T10:36:32.126Z,59.7
2019-03-09T10:37:32.040Z,59.3
2019-03-09T10:38:31.994Z,59.5
2019-03-09T10:39:32.362Z,58.2
2019-03-09T10:40:32.291Z,58.8
2019-03-09T10:41:32.194Z,58.7
2019-03-09T10:42:32.096Z,58.7
2019-03-09T10:43:32.227Z,58.3
2019-03-09T10:44:32.104Z,58.3
2019-03-09T10:45:32.044Z,58.6
2019-03-09T10:46:32.962Z,58.7
2019-03-09T10:47:32.887Z,58.1
2019-03-09T10:48:32.999Z,58.3
2019-03-09T10:49:36.418Z,58.4
2019-03-09T10:50:36.325Z,58.5
2019-03-09T10:51:36.242Z,58.5
2019-03-09T10:52:36.492Z,58.5
2019-03-09T10:53:36.370Z,58.8
2019-03-09T10:54:36.992Z,59
2019-03-09T10:55:39.944Z,58.7
2019-03-09T10:56:42.275Z,59.1
2019-03-09T10:57:42.180Z,59.4
2019-03-09T10:58:43.125Z,59.6
2019-03-09T10:59:46.100Z,58.7
2019-03-09T11:00:46.227Z,59.2
2019-03-09T11:01:46.141Z,58.5
2019-03-09T11:02:47.111Z,59
2019-03-09T11:03:47.029Z,59.5
2019-03-09T11:04:46.962Z,59.2
2019-03-09T11:05:46.848Z,58.9
2019-03-09T11:06:47.985Z,59
2019-03-09T11:07:47.899Z,58.5
2019-03-09T11:08:47.784Z,59
2019-03-09T11:09:48.125Z,59
2019-03-09T11:10:48.053Z,59
2019-03-09T11:11:47.954Z,58.6
2019-03-09T11:12:47.867Z,58.6
2019-03-09T11:13:55.499Z,58.8
2019-03-09T11:14:55.625Z,58.8
2019-03-09T11:15:55.546Z,58.7
2019-03-09T11:16:55.464Z,58.7
2019-03-09T11:17:55.376Z,58.3
2019-03-09T11:18:55.299Z,58.1
2019-03-09T11:19:55.648Z,58
2019-03-09T11:20:55.599Z,58.2
2019-03-09T11:22:03.549Z,58.5
2019-03-09T11:23:03.435Z,58.2
2019-03-09T11:24:03.379Z,57.7
2019-03-09T11:25:04.660Z,58.1
2019-03-09T11:26:04.563Z,58.1
2019-03-09T11:27:04.485Z,58.6
2019-03-09T11:28:04.381Z,58.5
2019-03-09T11:29:04.313Z,58.7
2019-03-09T11:30:04.650Z,58.2
2019-03-09T11:31:04.545Z,57.5
2019-03-09T11:32:04.442Z,57.5
2019-03-09T11:33:07.267Z,57.7
2019-03-09T11:34:07.203Z,57.9
2019-03-09T11:35:07.086Z,57.5
2019-03-09T11:36:07.062Z,57.4
2019-03-09T11:37:06.981Z,57.7
2019-03-09T11:38:06.885Z,57.3
2019-03-09T11:39:06.788Z,57.5
2019-03-09T11:40:09.909Z,58
2019-03-09T11:41:19.714Z,58.4
2019-03-09T11:42:19.618Z,57.8
2019-03-09T11:43:19.787Z,57.3
2019-03-09T11:44:19.698Z,57
2019-03-09T11:45:19.647Z,56.9
2019-03-09T11:46:19.541Z,56.9
2019-03-09T11:47:19.463Z,56.6
2019-03-09T11:48:19.384Z,57
2019-03-09T11:49:19.509Z,56.3
2019-03-09T11:50:19.881Z,56.5
2019-03-09T11:51:19.769Z,56.9
2019-03-09T11:52:21.253Z,57
2019-03-09T11:53:21.165Z,56.6
2019-03-09T11:54:21.079Z,55.5
2019-03-09T11:55:20.986Z,56.2
2019-03-09T11:56:20.863Z,55.7
2019-03-09T11:57:20.759Z,56.3
2019-03-09T11:58:21.676Z,56
2019-03-09T11:59:21.589Z,55.8
2019-03-09T12:00:21.928Z,56.6
2019-03-09T12:01:21.817Z,56.4
2019-03-09T12:02:21.707Z,56
2019-03-09T12:03:21.617Z,56.3
2019-03-09T12:04:21.561Z,56.7
2019-03-09T12:05:21.443Z,56.3
2019-03-09T12:06:21.383Z,56.3
2019-03-09T12:07:21.327Z,56.3
2019-03-09T12:08:21.285Z,56.9
2019-03-09T12:09:21.173Z,57
2019-03-09T12:10:21.522Z,55.4
2019-03-09T12:11:21.447Z,55.7
2019-03-09T12:12:21.355Z,55.6
2019-03-09T12:13:21.259Z,54.5
2019-03-09T12:14:21.139Z,55.6
2019-03-09T12:15:21.043Z,55.6
2019-03-09T12:16:21.787Z,56.1
2019-03-09T12:17:21.688Z,55.9
2019-03-09T12:18:21.603Z,55.6
2019-03-09T12:19:21.517Z,55.8
2019-03-09T12:20:21.843Z,56.4
2019-03-09T12:21:21.806Z,55.8
2019-03-09T12:22:21.811Z,55.9
2019-03-09T12:23:21.737Z,56.1
2019-03-09T12:24:21.658Z,56.1
2019-03-09T12:25:21.571Z,55.5
2019-03-09T12:26:21.498Z,55.6
2019-03-09T12:27:21.409Z,56
2019-03-09T12:28:21.587Z,56.2
2019-03-09T12:29:21.502Z,55.7
2019-03-09T12:30:21.800Z,56
2019-03-09T12:31:21.699Z,56.7
2019-03-09T12:32:21.630Z,56.2
2019-03-09T12:33:21.552Z,56.4
2019-03-09T12:34:21.487Z,57
2019-03-09T12:35:21.376Z,55.5
2019-03-09T12:36:21.316Z,55.8
2019-03-09T12:37:21.197Z,56.2
2019-03-09T12:38:21.135Z,56.3
2019-03-09T12:39:21.031Z,56.1
2019-03-09T12:40:21.361Z,56.1
2019-03-09T12:41:22.267Z,56.2
2019-03-09T12:42:22.235Z,55.6
2019-03-09T12:43:22.156Z,56.1
2019-03-09T12:44:22.099Z,56.1
2019-03-09T12:45:21.980Z,55.5
2019-03-09T12:46:21.929Z,55.4
2019-03-09T12:47:21.815Z,56.1
2019-03-09T12:48:21.747Z,56.8
2019-03-09T12:49:21.712Z,56.7
2019-03-09T12:50:22.256Z,56.4
2019-03-09T12:51:22.166Z,55.8
2019-03-09T12:52:22.075Z,56.2
2019-03-09T12:53:22.002Z,56.3
2019-03-09T12:54:21.923Z,56
2019-03-09T12:55:21.812Z,56.2
2019-03-09T12:56:21.697Z,56
2019-03-09T12:57:21.753Z,55.8
2019-03-09T12:58:21.758Z,55.9
2019-03-09T12:59:21.663Z,56.4
2019-03-09T13:00:22.023Z,56.1
2019-03-09T13:01:22.872Z,56.8
2019-03-09T13:02:22.789Z,56.4
2019-03-09T13:03:22.714Z,56.4
2019-03-09T13:04:22.637Z,56.5
2019-03-09T13:05:22.570Z,56.6
2019-03-09T13:06:23.566Z,56.7
2019-03-09T13:07:23.684Z,56.7
2019-03-09T13:08:24.299Z,56.5
2019-03-09T13:09:24.466Z,56.4
2019-03-09T13:10:24.862Z,56.6
2019-03-09T13:11:24.866Z,56.4
2019-03-09T13:12:24.868Z,56.1
2019-03-09T13:13:24.746Z,56.3
2019-03-09T13:14:24.739Z,56.3
2019-03-09T13:15:24.664Z,56.4
2019-03-09T13:16:24.574Z,55.8
2019-03-09T13:17:24.460Z,55.7
2019-03-09T13:18:24.382Z,56
2019-03-09T13:19:24.277Z,55.9
2019-03-09T13:20:24.646Z,55.8
2019-03-09T13:21:24.556Z,55.4
2019-03-09T13:22:24.450Z,55.5
2019-03-09T13:23:24.348Z,55.6
2019-03-09T13:24:24.258Z,55.5
2019-03-09T13:25:24.176Z,55.4
2019-03-09T13:26:24.455Z,55.5
2019-03-09T13:27:24.579Z,55.8
2019-03-09T13:28:24.483Z,55.5
2019-03-09T13:29:24.378Z,56.3
2019-03-09T13:30:24.700Z,55.5
2019-03-09T13:31:24.606Z,55.5
2019-03-09T13:32:24.559Z,55.1
2019-03-09T13:33:24.463Z,55.5
2019-03-09T13:34:24.370Z,55.6
2019-03-09T13:35:24.292Z,55.6
2019-03-09T13:36:24.186Z,55.7
2019-03-09T13:37:24.110Z,55.6
2019-03-09T13:38:25.056Z,55.6
2019-03-09T13:39:24.988Z,55.1
2019-03-09T13:40:25.418Z,55.6
2019-03-09T13:41:25.316Z,56.4
2019-03-09T13:42:27.974Z,55.6
2019-03-09T13:43:27.890Z,55.7
2019-03-09T13:44:27.800Z,55.9
2019-03-09T13:45:28.126Z,55.5
2019-03-09T13:46:28.028Z,55.6
2019-03-09T13:47:27.932Z,55.5
2019-03-09T13:48:27.942Z,55.3
2019-03-09T13:49:28.314Z,55.5
2019-03-09T13:50:32.130Z,55.8
2019-03-09T13:51:32.247Z,55.3
2019-03-09T13:52:32.437Z,55.8
2019-03-09T13:53:32.802Z,55.9
2019-03-09T13:54:33.040Z,55.8
2019-03-09T13:55:33.522Z,55.3
2019-03-09T13:56:33.660Z,55.3
2019-03-09T13:57:33.812Z,55.5
2019-03-09T13:58:33.710Z,55.3
2019-03-09T13:59:33.625Z,55.7
2019-03-09T14:00:41.536Z,55.7
2019-03-09T14:01:41.420Z,55.9
2019-03-09T14:02:41.318Z,56
2019-03-09T14:03:41.219Z,55.8
2019-03-09T14:04:41.124Z,55.9
2019-03-09T14:05:41.020Z,55.8
2019-03-09T14:06:40.906Z,55.3
2019-03-09T14:07:40.790Z,55.3
2019-03-09T14:08:40.699Z,55.3
2019-03-09T14:09:40.579Z,55.5
2019-03-09T14:10:40.919Z,55.3
2019-03-09T14:11:40.825Z,55.5
2019-03-09T14:12:41.445Z,55.9
2019-03-09T14:13:41.343Z,56.3
2019-03-09T14:14:41.255Z,56
2019-03-09T14:15:41.167Z,56.7
2019-03-09T14:16:41.109Z,56.3
2019-03-09T14:17:41.067Z,56.6
2019-03-09T14:18:40.955Z,56.6
2019-03-09T14:19:40.838Z,56.8
2019-03-09T14:20:41.417Z,57.1
2019-03-09T14:21:41.296Z,57.2
2019-03-09T14:22:41.231Z,57.4
2019-03-09T14:23:41.134Z,57.4
2019-03-09T14:24:41.055Z,57.7
2019-03-09T14:25:40.965Z,57.6
2019-03-09T14:26:40.863Z,57.1
2019-03-09T14:27:40.820Z,57.2
2019-03-09T14:28:40.724Z,57.5
2019-03-09T14:29:40.647Z,57.8
2019-03-09T14:30:40.982Z,57.7
2019-03-09T14:31:40.892Z,57.8
2019-03-09T14:32:40.806Z,58
2019-03-09T14:33:40.957Z,58.4
2019-03-09T14:34:40.855Z,58.1
2019-03-09T14:35:40.769Z,57.9
2019-03-09T14:36:40.699Z,57.6
2019-03-09T14:37:40.620Z,57.6
2019-03-09T14:38:40.519Z,58.1
2019-03-09T14:39:40.443Z,57.3
2019-03-09T14:40:41.008Z,57.8
2019-03-09T14:41:40.905Z,57.7
2019-03-09T14:42:40.816Z,57.7
2019-03-09T14:43:40.724Z,57.7
2019-03-09T14:44:40.693Z,58.1
2019-03-09T14:45:43.273Z,57.9
2019-03-09T14:46:43.176Z,58.1
2019-03-09T14:47:43.093Z,59.4
2019-03-09T14:48:44.249Z,59.6
2019-03-09T14:49:44.146Z,59.7
2019-03-09T14:50:44.465Z,59.6
2019-03-09T14:51:44.373Z,59.7
2019-03-09T14:52:44.279Z,59.6
2019-03-09T14:53:44.201Z,59.6
2019-03-09T14:54:44.105Z,59.7
2019-03-09T14:55:45.029Z,59.6
2019-03-09T14:56:44.919Z,59.9
2019-03-09T14:57:44.869Z,60.2
2019-03-09T14:58:44.791Z,60.3
2019-03-09T14:59:44.791Z,60.3
2019-03-09T15:00:45.131Z,60.2
2019-03-09T15:01:45.021Z,60.2